sensor_id;sensor_type;location;lat;lon;timestamp;pressure;altitude;pressure_sealevel;temperature;humidity
6090;BME280;3073;42.660;23.316;2022-10-15T00:02:17;94763.22;;;12.20;100.00
6090;BME280;3073;42.660;23.316;2022-10-15T00:04:44;94759.19;;;12.24;100.00
6090;BME280;3073;42.660;23.316;2022-10-15T00:07:12;94762.13;;;12.37;100.00
6090;BME280;3073;42.660;23.316;2022-10-15T00:09:39;94753.69;;;12.37;100.00
6090;BME280;3073;42.660;23.316;2022-10-15T00:12:10;94759.81;;;12.36;100.00
6090;BME280;3073;42.660;23.316;2022-10-15T00:14:38;94753.50;;;12.44;100.00
6090;BME280;3073;42.660;23.316;2022-10-15T00:17:05;94754.31;;;12.49;100.00
6090;BME280;3073;42.660;23.316;2022-10-15T00:19:32;94755.13;;;12.55;100.00
6090;BME280;3073;42.660;23.316;2022-10-15T00:21:59;94755.31;;;12.48;100.00
6090;BME280;3073;42.660;23.316;2022-10-15T00:24:26;94762.38;;;12.36;100.00
6090;BME280;3073;42.660;23.316;2022-10-15T00:26:53;94740.19;;;12.20;100.00
6090;BME280;3073;42.660;23.316;2022-10-15T00:29:21;94741.63;;;12.11;100.00
6090;BME280;3073;42.660;23.316;2022-10-15T00:31:49;94743.13;;;12.07;100.00
6090;BME280;3073;42.660;23.316;2022-10-15T00:34:16;94741.91;;;11.93;100.00
6090;BME280;3073;42.660;23.316;2022-10-15T00:36:43;94742.44;;;11.95;100.00
6090;BME280;3073;42.660;23.316;2022-10-15T00:39:09;94739.72;;;12.01;100.00
6090;BME280;3073;42.660;23.316;2022-10-15T00:41:39;94738.72;;;12.02;100.00
6090;BME280;3073;42.660;23.316;2022-10-15T00:47:24;94729.56;;;12.06;100.00
6090;BME280;3073;42.660;23.316;2022-10-15T00:49:58;94726.28;;;12.11;100.00
6090;BME280;3073;42.660;23.316;2022-10-15T00:52:38;94724.59;;;12.21;100.00
6090;BME280;3073;42.660;23.316;2022-10-15T00:55:09;94718.94;;;12.19;100.00
6090;BME280;3073;42.660;23.316;2022-10-15T00:57:39;94712.75;;;12.15;100.00
6090;BME280;3073;42.660;23.316;2022-10-15T01:00:08;94717.53;;;12.07;100.00
6090;BME280;3073;42.660;23.316;2022-10-15T01:02:37;94716.94;;;12.00;100.00
6090;BME280;3073;42.660;23.316;2022-10-15T01:05:05;94715.41;;;11.99;100.00
6090;BME280;3073;42.660;23.316;2022-10-15T01:07:32;94709.03;;;12.01;100.00
6090;BME280;3073;42.660;23.316;2022-10-15T01:09:59;94715.75;;;12.07;100.00
6090;BME280;3073;42.660;23.316;2022-10-15T01:12:36;94716.47;;;12.03;100.00
6090;BME280;3073;42.660;23.316;2022-10-15T01:15:10;94714.53;;;12.15;100.00
6090;BME280;3073;42.660;23.316;2022-10-15T01:17:45;94712.94;;;12.09;100.00
6090;BME280;3073;42.660;23.316;2022-10-15T01:20:49;94715.56;;;12.14;100.00
6090;BME280;3073;42.660;23.316;2022-10-15T01:26:52;94712.25;;;12.13;100.00
6090;BME280;3073;42.660;23.316;2022-10-15T01:29:32;94708.84;;;12.08;100.00
6090;BME280;3073;42.660;23.316;2022-10-15T01:32:13;94714.84;;;12.18;100.00
6090;BME280;3073;42.660;23.316;2022-10-15T01:34:48;94718.69;;;12.21;100.00
6090;BME280;3073;42.660;23.316;2022-10-15T01:37:22;94721.31;;;12.26;100.00
6090;BME280;3073;42.660;23.316;2022-10-15T01:39:55;94722.69;;;12.33;100.00
6090;BME280;3073;42.660;23.316;2022-10-15T01:42:27;94712.19;;;12.35;100.00
6090;BME280;3073;42.660;23.316;2022-10-15T01:44:58;94712.66;;;12.27;100.00
6090;BME280;3073;42.660;23.316;2022-10-15T01:47:32;94708.16;;;12.39;100.00
6090;BME280;3073;42.660;23.316;2022-10-15T01:50:02;94712.25;;;12.40;100.00
6090;BME280;3073;42.660;23.316;2022-10-15T01:52:33;94711.28;;;12.46;100.00
6090;BME280;3073;42.660;23.316;2022-10-15T01:55:05;94714.63;;;12.47;100.00
6090;BME280;3073;42.660;23.316;2022-10-15T01:57:33;94715.81;;;12.39;100.00
6090;BME280;3073;42.660;23.316;2022-10-15T02:00:01;94713.03;;;12.41;100.00
6090;BME280;3073;42.660;23.316;2022-10-15T02:02:30;94716.91;;;12.43;100.00
6090;BME280;3073;42.660;23.316;2022-10-15T02:04:57;94713.97;;;12.34;100.00
6090;BME280;3073;42.660;23.316;2022-10-15T02:07:29;94717.69;;;12.22;100.00
6090;BME280;3073;42.660;23.316;2022-10-15T02:10:04;94716.91;;;12.21;100.00
6090;BME280;3073;42.660;23.316;2022-10-15T02:12:43;94715.41;;;12.20;100.00
6090;BME280;3073;42.660;23.316;2022-10-15T02:15:18;94718.75;;;12.26;100.00
6090;BME280;3073;42.660;23.316;2022-10-15T02:17:56;94715.88;;;12.17;100.00
6090;BME280;3073;42.660;23.316;2022-10-15T02:20:29;94724.47;;;12.11;100.00
6090;BME280;3073;42.660;23.316;2022-10-15T02:23:02;94710.47;;;12.14;100.00
6090;BME280;3073;42.660;23.316;2022-10-15T02:25:32;94718.31;;;12.07;100.00
6090;BME280;3073;42.660;23.316;2022-10-15T02:28:01;94715.03;;;12.12;100.00
6090;BME280;3073;42.660;23.316;2022-10-15T02:30:30;94714.06;;;12.18;100.00
6090;BME280;3073;42.660;23.316;2022-10-15T02:32:59;94716.75;;;12.06;100.00
6090;BME280;3073;42.660;23.316;2022-10-15T02:35:26;94717.19;;;12.20;100.00
6090;BME280;3073;42.660;23.316;2022-10-15T02:37:55;94721.94;;;12.11;100.00
6090;BME280;3073;42.660;23.316;2022-10-15T02:40:26;94719.38;;;12.11;100.00
6090;BME280;3073;42.660;23.316;2022-10-15T02:42:54;94719.56;;;12.05;100.00
6090;BME280;3073;42.660;23.316;2022-10-15T02:45:21;94728.88;;;12.16;100.00
6090;BME280;3073;42.660;23.316;2022-10-15T02:47:48;94724.72;;;12.10;100.00
6090;BME280;3073;42.660;23.316;2022-10-15T02:50:16;94725.63;;;11.99;100.00
6090;BME280;3073;42.660;23.316;2022-10-15T02:52:43;94727.22;;;12.05;100.00
6090;BME280;3073;42.660;23.316;2022-10-15T02:55:10;94722.19;;;12.10;100.00
6090;BME280;3073;42.660;23.316;2022-10-15T02:57:37;94721.75;;;12.18;100.00
6090;BME280;3073;42.660;23.316;2022-10-15T03:00:04;94718.69;;;12.21;100.00
6090;BME280;3073;42.660;23.316;2022-10-15T03:02:31;94717.22;;;12.25;100.00
6090;BME280;3073;42.660;23.316;2022-10-15T03:04:58;94717.47;;;12.23;100.00
6090;BME280;3073;42.660;23.316;2022-10-15T03:07:26;94714.91;;;12.23;100.00
6090;BME280;3073;42.660;23.316;2022-10-15T03:09:53;94718.53;;;12.27;100.00
6090;BME280;3073;42.660;23.316;2022-10-15T03:12:20;94713.84;;;12.19;100.00
6090;BME280;3073;42.660;23.316;2022-10-15T03:14:50;94716.22;;;12.26;100.00
6090;BME280;3073;42.660;23.316;2022-10-15T03:17:17;94717.09;;;12.15;100.00
6090;BME280;3073;42.660;23.316;2022-10-15T03:19:44;94714.44;;;12.05;100.00
6090;BME280;3073;42.660;23.316;2022-10-15T03:22:11;94718.78;;;12.04;100.00
6090;BME280;3073;42.660;23.316;2022-10-15T03:24:39;94719.81;;;12.03;100.00
6090;BME280;3073;42.660;23.316;2022-10-15T03:27:07;94721.06;;;12.01;100.00
6090;BME280;3073;42.660;23.316;2022-10-15T03:29:33;94722.59;;;12.02;100.00
6090;BME280;3073;42.660;23.316;2022-10-15T03:32:00;94728.91;;;11.94;100.00
6090;BME280;3073;42.660;23.316;2022-10-15T03:34:27;94720.50;;;11.99;100.00
6090;BME280;3073;42.660;23.316;2022-10-15T03:36:54;94722.53;;;11.97;100.00
6090;BME280;3073;42.660;23.316;2022-10-15T03:39:21;94723.84;;;11.99;100.00
6090;BME280;3073;42.660;23.316;2022-10-15T03:41:51;94722.09;;;12.05;100.00
6090;BME280;3073;42.660;23.316;2022-10-15T03:44:18;94727.78;;;12.07;100.00
6090;BME280;3073;42.660;23.316;2022-10-15T03:46:45;94724.97;;;12.08;100.00
6090;BME280;3073;42.660;23.316;2022-10-15T03:49:11;94719.63;;;12.10;100.00
6090;BME280;3073;42.660;23.316;2022-10-15T03:51:38;94733.22;;;12.15;100.00
6090;BME280;3073;42.660;23.316;2022-10-15T03:54:05;94727.81;;;12.12;100.00
6090;BME280;3073;42.660;23.316;2022-10-15T03:56:32;94727.41;;;11.98;100.00
6090;BME280;3073;42.660;23.316;2022-10-15T03:59:00;94737.28;;;11.90;100.00
6090;BME280;3073;42.660;23.316;2022-10-15T04:01:28;94735.06;;;11.98;100.00
6090;BME280;3073;42.660;23.316;2022-10-15T04:03:55;94737.41;;;12.00;100.00
6090;BME280;3073;42.660;23.316;2022-10-15T04:06:24;94736.81;;;11.93;100.00
6090;BME280;3073;42.660;23.316;2022-10-15T04:08:51;94742.41;;;11.90;100.00
6090;BME280;3073;42.660;23.316;2022-10-15T04:11:18;94738.06;;;11.90;100.00
6090;BME280;3073;42.660;23.316;2022-10-15T04:13:47;94738.75;;;11.85;100.00
6090;BME280;3073;42.660;23.316;2022-10-15T04:16:16;94742.56;;;11.83;100.00
6090;BME280;3073;42.660;23.316;2022-10-15T04:18:44;94734.78;;;11.95;100.00
6090;BME280;3073;42.660;23.316;2022-10-15T04:21:10;94742.44;;;11.95;100.00
6090;BME280;3073;42.660;23.316;2022-10-15T04:23:37;94744.69;;;11.91;100.00
6090;BME280;3073;42.660;23.316;2022-10-15T04:26:05;94741.22;;;11.97;100.00
6090;BME280;3073;42.660;23.316;2022-10-15T04:28:32;94742.41;;;11.90;100.00
6090;BME280;3073;42.660;23.316;2022-10-15T04:30:59;94743.41;;;11.88;100.00
6090;BME280;3073;42.660;23.316;2022-10-15T04:33:28;94748.69;;;11.82;100.00
6090;BME280;3073;42.660;23.316;2022-10-15T04:35:59;94744.34;;;11.82;100.00
6090;BME280;3073;42.660;23.316;2022-10-15T04:38:27;94747.59;;;11.78;100.00
6090;BME280;3073;42.660;23.316;2022-10-15T04:40:59;94755.22;;;11.73;100.00
6090;BME280;3073;42.660;23.316;2022-10-15T04:43:27;94755.91;;;11.68;100.00
6090;BME280;3073;42.660;23.316;2022-10-15T04:45:56;94756.22;;;11.55;100.00
6090;BME280;3073;42.660;23.316;2022-10-15T04:48:23;94758.72;;;11.50;100.00
6090;BME280;3073;42.660;23.316;2022-10-15T04:50:52;94764.31;;;11.47;100.00
6090;BME280;3073;42.660;23.316;2022-10-15T04:53:19;94758.47;;;11.52;100.00
6090;BME280;3073;42.660;23.316;2022-10-15T04:55:47;94768.06;;;11.61;100.00
6090;BME280;3073;42.660;23.316;2022-10-15T04:58:14;94765.91;;;11.70;100.00
6090;BME280;3073;42.660;23.316;2022-10-15T05:00:40;94766.44;;;11.72;100.00
6090;BME280;3073;42.660;23.316;2022-10-15T05:03:08;94769.69;;;11.67;100.00
6090;BME280;3073;42.660;23.316;2022-10-15T05:05:35;94769.41;;;11.64;100.00
6090;BME280;3073;42.660;23.316;2022-10-15T05:08:04;94777.81;;;11.64;100.00
6090;BME280;3073;42.660;23.316;2022-10-15T05:10:31;94768.94;;;11.50;100.00
6090;BME280;3073;42.660;23.316;2022-10-15T05:12:57;94776.16;;;11.53;100.00
6090;BME280;3073;42.660;23.316;2022-10-15T05:15:25;94779.38;;;11.49;100.00
6090;BME280;3073;42.660;23.316;2022-10-15T05:17:53;94777.75;;;11.59;100.00
6090;BME280;3073;42.660;23.316;2022-10-15T05:20:19;94782.41;;;11.46;100.00
6090;BME280;3073;42.660;23.316;2022-10-15T05:22:46;94785.75;;;11.46;100.00
6090;BME280;3073;42.660;23.316;2022-10-15T05:25:14;94778.13;;;11.51;100.00
6090;BME280;3073;42.660;23.316;2022-10-15T05:27:42;94789.22;;;11.57;100.00
6090;BME280;3073;42.660;23.316;2022-10-15T05:30:09;94789.59;;;11.65;100.00
6090;BME280;3073;42.660;23.316;2022-10-15T05:32:36;94792.00;;;11.72;100.00
6090;BME280;3073;42.660;23.316;2022-10-15T05:35:04;94790.44;;;11.71;100.00
6090;BME280;3073;42.660;23.316;2022-10-15T05:37:31;94797.16;;;11.94;100.00
6090;BME280;3073;42.660;23.316;2022-10-15T05:39:58;94795.53;;;11.87;100.00
6090;BME280;3073;42.660;23.316;2022-10-15T05:42:29;94799.38;;;12.07;100.00
6090;BME280;3073;42.660;23.316;2022-10-15T05:44:56;94807.09;;;12.12;100.00
6090;BME280;3073;42.660;23.316;2022-10-15T05:47:23;94812.66;;;12.25;100.00
6090;BME280;3073;42.660;23.316;2022-10-15T05:49:50;94813.72;;;12.29;100.00
6090;BME280;3073;42.660;23.316;2022-10-15T05:52:16;94809.53;;;12.45;100.00
6090;BME280;3073;42.660;23.316;2022-10-15T05:54:43;94814.44;;;12.47;100.00
6090;BME280;3073;42.660;23.316;2022-10-15T05:57:10;94807.84;;;12.51;100.00
6090;BME280;3073;42.660;23.316;2022-10-15T05:59:38;94806.03;;;12.51;100.00
6090;BME280;3073;42.660;23.316;2022-10-15T06:02:07;94807.50;;;12.69;100.00
6090;BME280;3073;42.660;23.316;2022-10-15T06:04:35;94808.41;;;12.84;100.00
6090;BME280;3073;42.660;23.316;2022-10-15T06:07:01;94805.53;;;13.08;100.00
6090;BME280;3073;42.660;23.316;2022-10-15T06:09:28;94808.69;;;13.10;100.00
6090;BME280;3073;42.660;23.316;2022-10-15T06:11:55;94813.34;;;13.18;100.00
6090;BME280;3073;42.660;23.316;2022-10-15T06:14:22;94809.91;;;13.07;100.00
6090;BME280;3073;42.660;23.316;2022-10-15T06:16:50;94813.06;;;12.87;100.00
6090;BME280;3073;42.660;23.316;2022-10-15T06:19:19;94817.34;;;12.82;100.00
6090;BME280;3073;42.660;23.316;2022-10-15T06:21:46;94814.66;;;12.94;100.00
6090;BME280;3073;42.660;23.316;2022-10-15T06:24:13;94825.88;;;12.87;100.00
6090;BME280;3073;42.660;23.316;2022-10-15T06:26:40;94829.63;;;12.80;100.00
6090;BME280;3073;42.660;23.316;2022-10-15T06:29:06;94824.84;;;12.88;100.00
6090;BME280;3073;42.660;23.316;2022-10-15T06:31:33;94836.97;;;13.25;100.00
6090;BME280;3073;42.660;23.316;2022-10-15T06:34:01;94831.19;;;13.71;100.00
6090;BME280;3073;42.660;23.316;2022-10-15T06:36:28;94841.50;;;13.81;100.00
6090;BME280;3073;42.660;23.316;2022-10-15T06:38:55;94844.13;;;13.91;100.00
6090;BME280;3073;42.660;23.316;2022-10-15T06:41:22;94847.25;;;13.99;100.00
6090;BME280;3073;42.660;23.316;2022-10-15T06:43:49;94843.13;;;14.39;100.00
6090;BME280;3073;42.660;23.316;2022-10-15T06:46:19;94845.88;;;14.95;100.00
6090;BME280;3073;42.660;23.316;2022-10-15T06:48:46;94844.38;;;15.44;100.00
6090;BME280;3073;42.660;23.316;2022-10-15T06:51:15;94850.06;;;15.97;100.00
6090;BME280;3073;42.660;23.316;2022-10-15T06:53:45;94845.63;;;16.18;100.00
6090;BME280;3073;42.660;23.316;2022-10-15T06:56:12;94850.56;;;16.83;100.00
6090;BME280;3073;42.660;23.316;2022-10-15T06:58:40;94846.91;;;16.89;100.00
6090;BME280;3073;42.660;23.316;2022-10-15T07:01:07;94846.75;;;17.15;100.00
6090;BME280;3073;42.660;23.316;2022-10-15T07:03:35;94844.31;;;17.33;100.00
6090;BME280;3073;42.660;23.316;2022-10-15T07:06:05;94855.44;;;17.68;100.00
6090;BME280;3073;42.660;23.316;2022-10-15T07:08:34;94854.94;;;15.98;100.00
6090;BME280;3073;42.660;23.316;2022-10-15T07:11:02;94853.69;;;15.81;100.00
6090;BME280;3073;42.660;23.316;2022-10-15T07:13:29;94856.88;;;16.47;100.00
6090;BME280;3073;42.660;23.316;2022-10-15T07:15:56;94859.00;;;16.94;100.00
6090;BME280;3073;42.660;23.316;2022-10-15T07:18:25;94858.91;;;17.48;100.00
6090;BME280;3073;42.660;23.316;2022-10-15T07:20:52;94870.16;;;16.79;100.00
6090;BME280;3073;42.660;23.316;2022-10-15T07:23:19;94866.75;;;16.05;100.00
6090;BME280;3073;42.660;23.316;2022-10-15T07:25:47;94858.03;;;15.75;100.00
6090;BME280;3073;42.660;23.316;2022-10-15T07:28:14;94857.75;;;15.31;100.00
6090;BME280;3073;42.660;23.316;2022-10-15T07:30:41;94850.25;;;15.00;100.00
6090;BME280;3073;42.660;23.316;2022-10-15T07:33:08;94854.44;;;15.31;100.00
6090;BME280;3073;42.660;23.316;2022-10-15T07:35:35;94857.47;;;15.03;100.00
6090;BME280;3073;42.660;23.316;2022-10-15T07:38:03;94864.84;;;14.74;100.00
6090;BME280;3073;42.660;23.316;2022-10-15T07:40:30;94859.81;;;15.29;100.00
6090;BME280;3073;42.660;23.316;2022-10-15T07:42:58;94866.19;;;16.33;100.00
6090;BME280;3073;42.660;23.316;2022-10-15T07:45:26;94862.94;;;17.25;100.00
6090;BME280;3073;42.660;23.316;2022-10-15T07:47:53;94859.13;;;17.90;100.00
6090;BME280;3073;42.660;23.316;2022-10-15T07:50:20;94865.25;;;18.47;96.00
6090;BME280;3073;42.660;23.316;2022-10-15T07:52:47;94870.53;;;19.78;86.10
6090;BME280;3073;42.660;23.316;2022-10-15T07:55:14;94868.34;;;19.98;80.61
6090;BME280;3073;42.660;23.316;2022-10-15T07:57:41;94870.34;;;20.01;78.87
6090;BME280;3073;42.660;23.316;2022-10-15T08:00:11;94868.94;;;19.26;81.30
6090;BME280;3073;42.660;23.316;2022-10-15T08:02:38;94868.13;;;18.69;86.86
6090;BME280;3073;42.660;23.316;2022-10-15T08:05:06;94866.72;;;18.06;91.50
6090;BME280;3073;42.660;23.316;2022-10-15T08:07:34;94873.59;;;18.86;89.04
6090;BME280;3073;42.660;23.316;2022-10-15T08:10:01;94875.00;;;18.55;85.72
6090;BME280;3073;42.660;23.316;2022-10-15T08:12:30;94862.84;;;19.35;82.48
6090;BME280;3073;42.660;23.316;2022-10-15T08:14:56;94872.00;;;19.97;77.01
6090;BME280;3073;42.660;23.316;2022-10-15T08:17:25;94869.41;;;21.06;72.21
6090;BME280;3073;42.660;23.316;2022-10-15T08:19:52;94858.75;;;21.66;67.52
6090;BME280;3073;42.660;23.316;2022-10-15T08:22:19;94860.91;;;22.17;65.07
6090;BME280;3073;42.660;23.316;2022-10-15T08:24:47;94860.56;;;22.10;63.63
6090;BME280;3073;42.660;23.316;2022-10-15T08:27:13;94855.63;;;22.31;60.07
6090;BME280;3073;42.660;23.316;2022-10-15T08:29:41;94854.13;;;22.47;60.91
6090;BME280;3073;42.660;23.316;2022-10-15T08:32:07;94863.78;;;22.16;59.17
6090;BME280;3073;42.660;23.316;2022-10-15T08:34:36;94856.53;;;22.74;59.66
6090;BME280;3073;42.660;23.316;2022-10-15T08:37:03;94854.69;;;22.27;58.86
6090;BME280;3073;42.660;23.316;2022-10-15T08:39:30;94861.56;;;20.98;59.89
6090;BME280;3073;42.660;23.316;2022-10-15T08:41:59;94848.34;;;20.72;61.57
6090;BME280;3073;42.660;23.316;2022-10-15T08:44:31;94841.63;;;20.71;63.18
6090;BME280;3073;42.660;23.316;2022-10-15T08:47:04;94844.66;;;20.05;64.36
6090;BME280;3073;42.660;23.316;2022-10-15T08:49:40;94843.69;;;18.99;69.04
6090;BME280;3073;42.660;23.316;2022-10-15T08:52:16;94838.72;;;19.40;70.47
6090;BME280;3073;42.660;23.316;2022-10-15T08:54:47;94849.59;;;20.61;67.90
6090;BME280;3073;42.660;23.316;2022-10-15T08:57:29;94840.78;;;21.12;63.17
6090;BME280;3073;42.660;23.316;2022-10-15T09:00:03;94843.13;;;21.88;59.25
6090;BME280;3073;42.660;23.316;2022-10-15T09:02:35;94850.00;;;22.06;58.18
6090;BME280;3073;42.660;23.316;2022-10-15T09:05:23;94844.16;;;22.97;56.11
6090;BME280;3073;42.660;23.316;2022-10-15T09:07:55;94852.47;;;22.12;56.39
6090;BME280;3073;42.660;23.316;2022-10-15T09:10:32;94853.88;;;20.93;57.85
6090;BME280;3073;42.660;23.316;2022-10-15T09:13:04;94849.75;;;20.78;58.73
6090;BME280;3073;42.660;23.316;2022-10-15T09:15:40;94860.22;;;20.19;60.47
6090;BME280;3073;42.660;23.316;2022-10-15T09:18:17;94855.72;;;20.11;62.21
6090;BME280;3073;42.660;23.316;2022-10-15T09:20:47;94857.34;;;21.60;59.14
6090;BME280;3073;42.660;23.316;2022-10-15T09:23:17;94856.63;;;21.24;58.12
6090;BME280;3073;42.660;23.316;2022-10-15T09:25:48;94853.44;;;20.36;62.93
6090;BME280;3073;42.660;23.316;2022-10-15T09:28:19;94854.81;;;21.91;59.80
6090;BME280;3073;42.660;23.316;2022-10-15T09:30:52;94845.81;;;22.28;56.73
6090;BME280;3073;42.660;23.316;2022-10-15T09:33:29;94841.28;;;23.07;54.75
6090;BME280;3073;42.660;23.316;2022-10-15T09:36:07;94848.03;;;24.23;52.59
6090;BME280;3073;42.660;23.316;2022-10-15T09:38:44;94851.72;;;24.60;47.77
6090;BME280;3073;42.660;23.316;2022-10-15T09:41:20;94850.09;;;24.85;45.69
6090;BME280;3073;42.660;23.316;2022-10-15T09:43:50;94848.25;;;25.47;45.47
6090;BME280;3073;42.660;23.316;2022-10-15T09:46:18;94841.81;;;25.45;44.94
6090;BME280;3073;42.660;23.316;2022-10-15T09:48:50;94839.38;;;25.60;44.57
6090;BME280;3073;42.660;23.316;2022-10-15T09:51:24;94836.53;;;23.00;46.87
6090;BME280;3073;42.660;23.316;2022-10-15T09:54:00;94839.16;;;22.04;50.16
6090;BME280;3073;42.660;23.316;2022-10-15T09:56:33;94835.47;;;20.26;52.57
6090;BME280;3073;42.660;23.316;2022-10-15T09:59:02;94835.72;;;19.33;55.74
6090;BME280;3073;42.660;23.316;2022-10-15T10:01:30;94837.69;;;20.33;55.21
6090;BME280;3073;42.660;23.316;2022-10-15T10:04:10;94838.09;;;20.40;56.03
6090;BME280;3073;42.660;23.316;2022-10-15T10:06:45;94844.84;;;20.09;58.79
6090;BME280;3073;42.660;23.316;2022-10-15T10:09:18;94844.69;;;20.73;56.84
6090;BME280;3073;42.660;23.316;2022-10-15T10:11:48;94845.66;;;22.33;53.98
6090;BME280;3073;42.660;23.316;2022-10-15T10:14:22;94846.38;;;22.64;51.85
6090;BME280;3073;42.660;23.316;2022-10-15T10:17:13;94844.16;;;21.79;53.03
6090;BME280;3073;42.660;23.316;2022-10-15T10:19:41;94849.16;;;21.44;52.66
6090;BME280;3073;42.660;23.316;2022-10-15T10:22:15;94841.13;;;21.85;53.10
6090;BME280;3073;42.660;23.316;2022-10-15T10:24:43;94840.81;;;22.09;52.03
6090;BME280;3073;42.660;23.316;2022-10-15T10:27:20;94839.91;;;22.44;49.30
6090;BME280;3073;42.660;23.316;2022-10-15T10:29:51;94827.25;;;22.60;50.74
6090;BME280;3073;42.660;23.316;2022-10-15T10:35:42;94825.94;;;21.70;49.95
6090;BME280;3073;42.660;23.316;2022-10-15T10:38:19;94832.94;;;22.23;50.02
6090;BME280;3073;42.660;23.316;2022-10-15T10:40:49;94826.63;;;22.63;48.21
6090;BME280;3073;42.660;23.316;2022-10-15T10:43:19;94830.53;;;22.35;49.39
6090;BME280;3073;42.660;23.316;2022-10-15T10:45:58;94826.50;;;21.89;49.63
6090;BME280;3073;42.660;23.316;2022-10-15T10:48:26;94826.78;;;21.57;50.56
6090;BME280;3073;42.660;23.316;2022-10-15T10:51:06;94822.59;;;21.47;50.76
6090;BME280;3073;42.660;23.316;2022-10-15T10:53:40;94817.56;;;21.51;49.66
6090;BME280;3073;42.660;23.316;2022-10-15T10:56:10;94824.88;;;22.89;47.58
6090;BME280;3073;42.660;23.316;2022-10-15T10:58:40;94820.44;;;22.98;45.71
6090;BME280;3073;42.660;23.316;2022-10-15T11:01:11;94822.84;;;22.69;47.09
6090;BME280;3073;42.660;23.316;2022-10-15T11:03:39;94815.91;;;21.11;48.52
6090;BME280;3073;42.660;23.316;2022-10-15T11:06:32;94812.75;;;20.50;50.63
6090;BME280;3073;42.660;23.316;2022-10-15T11:09:16;94815.34;;;20.37;51.54
6090;BME280;3073;42.660;23.316;2022-10-15T11:11:54;94819.13;;;19.98;51.56
6090;BME280;3073;42.660;23.316;2022-10-15T11:14:30;94815.94;;;20.83;50.59
6090;BME280;3073;42.660;23.316;2022-10-15T11:17:07;94805.44;;;22.39;48.19
6090;BME280;3073;42.660;23.316;2022-10-15T11:19:42;94801.75;;;23.14;46.03
6090;BME280;3073;42.660;23.316;2022-10-15T11:22:27;94808.66;;;23.01;44.55
6090;BME280;3073;42.660;23.316;2022-10-15T11:25:05;94806.88;;;23.91;44.91
6090;BME280;3073;42.660;23.316;2022-10-15T11:27:48;94809.06;;;23.80;43.88
6090;BME280;3073;42.660;23.316;2022-10-15T11:30:28;94806.69;;;24.72;43.66
6090;BME280;3073;42.660;23.316;2022-10-15T11:33:04;94802.81;;;24.78;43.51
6090;BME280;3073;42.660;23.316;2022-10-15T11:35:42;94806.78;;;25.04;43.15
6090;BME280;3073;42.660;23.316;2022-10-15T11:38:18;94805.59;;;23.42;45.26
6090;BME280;3073;42.660;23.316;2022-10-15T11:41:08;94803.00;;;22.42;45.63
6090;BME280;3073;42.660;23.316;2022-10-15T11:43:52;94799.00;;;22.28;46.43
6090;BME280;3073;42.660;23.316;2022-10-15T11:46:27;94792.97;;;22.01;47.04
6090;BME280;3073;42.660;23.316;2022-10-15T11:49:14;94792.72;;;23.37;45.58
6090;BME280;3073;42.660;23.316;2022-10-15T11:51:58;94800.63;;;24.80;44.16
6090;BME280;3073;42.660;23.316;2022-10-15T11:54:33;94804.97;;;25.38;41.25
6090;BME280;3073;42.660;23.316;2022-10-15T11:57:04;94793.19;;;26.70;40.98
6090;BME280;3073;42.660;23.316;2022-10-15T11:59:37;94794.25;;;26.69;40.80
6090;BME280;3073;42.660;23.316;2022-10-15T12:02:14;94794.16;;;27.73;39.01
6090;BME280;3073;42.660;23.316;2022-10-15T12:04:47;94796.97;;;26.97;38.65
6090;BME280;3073;42.660;23.316;2022-10-15T12:07:21;94803.16;;;25.83;39.78
6090;BME280;3073;42.660;23.316;2022-10-15T12:09:53;94811.06;;;24.80;41.39
6090;BME280;3073;42.660;23.316;2022-10-15T12:12:30;94805.22;;;23.78;42.91
6090;BME280;3073;42.660;23.316;2022-10-15T12:15:12;94810.81;;;23.25;44.55
6090;BME280;3073;42.660;23.316;2022-10-15T12:17:50;94803.06;;;22.59;46.21
6090;BME280;3073;42.660;23.316;2022-10-15T12:20:20;94813.53;;;21.89;47.27
6090;BME280;3073;42.660;23.316;2022-10-15T12:22:58;94807.72;;;21.39;48.67
6090;BME280;3073;42.660;23.316;2022-10-15T12:25:40;94809.91;;;20.88;49.98
6090;BME280;3073;42.660;23.316;2022-10-15T12:28:18;94812.59;;;20.69;51.42
6090;BME280;3073;42.660;23.316;2022-10-15T12:31:01;94808.53;;;20.27;52.36
6090;BME280;3073;42.660;23.316;2022-10-15T12:33:34;94803.00;;;19.88;54.51
6090;BME280;3073;42.660;23.316;2022-10-15T12:36:04;94802.75;;;19.57;55.67
6090;BME280;3073;42.660;23.316;2022-10-15T12:38:36;94806.41;;;19.70;55.59
6090;BME280;3073;42.660;23.316;2022-10-15T12:41:08;94801.66;;;19.77;55.41
6090;BME280;3073;42.660;23.316;2022-10-15T12:43:40;94797.50;;;21.43;52.88
6090;BME280;3073;42.660;23.316;2022-10-15T12:46:09;94795.84;;;22.48;49.68
6090;BME280;3073;42.660;23.316;2022-10-15T12:48:40;94791.94;;;23.36;48.34
6090;BME280;3073;42.660;23.316;2022-10-15T12:51:37;94793.34;;;23.51;47.01
6090;BME280;3073;42.660;23.316;2022-10-15T12:54:36;94802.66;;;22.92;47.65
6090;BME280;3073;42.660;23.316;2022-10-15T13:00:39;94802.56;;;22.40;48.84
6090;BME280;3073;42.660;23.316;2022-10-15T13:03:16;94796.31;;;21.27;50.95
6090;BME280;3073;42.660;23.316;2022-10-15T13:05:44;94797.50;;;21.21;51.64
6090;BME280;3073;42.660;23.316;2022-10-15T13:08:14;94798.63;;;21.28;51.58
6090;BME280;3073;42.660;23.316;2022-10-15T13:10:47;94798.47;;;22.48;49.82
6090;BME280;3073;42.660;23.316;2022-10-15T13:13:17;94797.00;;;23.50;47.39
6090;BME280;3073;42.660;23.316;2022-10-15T13:15:51;94801.91;;;23.08;48.30
6090;BME280;3073;42.660;23.316;2022-10-15T13:18:21;94792.72;;;23.11;47.74
6090;BME280;3073;42.660;23.316;2022-10-15T13:20:49;94786.53;;;21.77;48.67
6090;BME280;3073;42.660;23.316;2022-10-15T13:23:20;94782.09;;;20.39;52.99
6090;BME280;3073;42.660;23.316;2022-10-15T13:25:48;94783.94;;;20.25;54.03
6090;BME280;3073;42.660;23.316;2022-10-15T13:28:29;94791.66;;;19.38;56.39
6090;BME280;3073;42.660;23.316;2022-10-15T13:30:59;94784.78;;;18.96;58.32
6090;BME280;3073;42.660;23.316;2022-10-15T13:33:26;94788.03;;;19.01;59.77
6090;BME280;3073;42.660;23.316;2022-10-15T13:35:53;94788.38;;;19.51;60.99
6090;BME280;3073;42.660;23.316;2022-10-15T13:38:22;94790.25;;;20.19;57.20